Time;durP1;ratioP1;P1;durP2;ratioP2;P2;SDS_P1;SDS_P2;PMS_P1;PMS_P2;Temp;Humidity;BMP_temperature;BMP_pressure;BME280_temperature;BME280_humidity;BME280_pressure;Samples;Min_cycle;Max_cycle;Signal;HPM_P1;HPM_P2
2023/02/10 00:00:19;;;;;;;;;;;;;;;;;;5115064;28;20285;-67
2023/02/10 00:02:44;;;;;;;;;;;;;;;;;;5114743;28;19995;-67
2023/02/10 00:05:10;;;;;;;;;;;;;;;;;;5114423;28;20323;-68
2023/02/10 00:07:36;;;;;;;;;;;;;;;;;;5114363;28;20046;-66
2023/02/10 00:10:02;;;;;;;;;;;;;;;;;;5114343;28;20401;-67
2023/02/10 00:12:28;;;;;;;;;;;;;;;;;;5114624;28;19947;-67
2023/02/10 00:14:54;;;;;;;;;;;;;;;;;;5114153;28;20323;-68
2023/02/10 00:17:20;;;;;;;;;;;;;;;;;;5114280;28;19987;-67
2023/02/10 00:19:46;;;;;;;;;;;;;;;;;;5114531;28;19948;-68
2023/02/10 00:22:11;;;;;;;;;;;;;;;;;;5114253;28;19954;-67
2023/02/10 00:24:37;;;;;;;;;;;;;;;;;;5114469;28;19946;-67
2023/02/10 00:27:03;;;;;;;;;;;;;;;;;;5114453;28;19952;-67
2023/02/10 00:29:31;;;;;;;;;;;;;;;;;;5113761;28;19973;-67
2023/02/10 00:31:57;;;;;;;;;;;;;;;;;;5114138;28;19955;-68
2023/02/10 00:34:24;;;;;;;;;;;;;;;;;;5114394;28;20381;-67
2023/02/10 00:36:50;;;;;;;;;;;;;;;;;;5114020;28;19967;-67
2023/02/10 00:39:16;;;;;;;;;;;;;;;;;;5114095;28;19991;-67
2023/02/10 00:41:42;;;;;;;;;;;;;;;;;;5113982;28;19951;-67
2023/02/10 00:44:08;;;;;;;;;;;;;;;;;;5113986;28;20027;-67
2023/02/10 00:46:34;;;;;;;;;;;;;;;;;;5114524;28;19962;-68
2023/02/10 00:49:00;;;;;;;;;;;;;;;;;;5113994;28;19954;-67
2023/02/10 00:51:25;;;;;;;;;;;;;;;;;;5096091;28;19956;-68
2023/02/10 00:53:52;;;;;;;;;;;;;;;;;;5114178;28;20317;-68
2023/02/10 00:56:18;;;;;;;;;;;;;;;;;;5114443;28;20055;-67
2023/02/10 00:58:44;;;;;;;;;;;;;;;;;;5113885;28;20365;-68
2023/02/10 01:01:10;;;;;;;;;;;;;;;;;;5113840;28;19954;-67
2023/02/10 01:03:36;;;;;;;;;;;;;;;;;;5113837;28;19951;-67
2023/02/10 01:06:01;;;;;;;;;;;;;;;;;;5114066;28;19997;-67
2023/02/10 01:08:27;;;;;;;;;;;;;;;;;;5113827;28;19957;-67
2023/02/10 01:10:53;;;;;;;;;;;;;;;;;;5113746;28;19955;-67
2023/02/10 01:13:19;;;;;;;;;;;;;;;;;;5114304;28;19965;-67
2023/02/10 01:15:45;;;;;;;;;;;;;;;;;;5113659;28;19978;-67
2023/02/10 01:18:11;;;;;;;;;;;;;;;;;;5114253;28;20409;-67
2023/02/10 01:20:37;;;;;;;;;;;;;;;;;;5113946;28;19951;-67
2023/02/10 01:23:03;;;;;;;;;;;;;;;;;;5113664;28;19952;-67
2023/02/10 01:25:28;;;;;;;;;;;;;;;;;;5113652;28;19958;-66
2023/02/10 01:27:54;;;;;;;;;;;;;;;;;;5113548;28;19955;-67
2023/02/10 01:30:20;;;;;;;;;;;;;;;;;;5113580;28;19954;-66
2023/02/10 01:32:46;;;;;;;;;;;;;;;;;;5113817;28;20048;-68
2023/02/10 01:35:12;;;;;;;;;;;;;;;;;;5114274;28;19974;-67
2023/02/10 01:37:38;;;;;;;;;;;;;;;;;;5113502;28;19951;-67
2023/02/10 01:40:04;;;;;;;;;;;;;;;;;;5113489;28;20411;-68
2023/02/10 01:42:30;;;;;;;;;;;;;;;;;;5116037;28;20012;-66
2023/02/10 01:44:55;;;;;;;;;;;;;;;;;;5117372;28;19957;-67
2023/02/10 01:47:24;;;;;;;;;;;;;;;;;;5117035;28;20020;-68
2023/02/10 01:49:49;;;;;;;;;;;;;;;;;;5116931;28;19955;-67
2023/02/10 01:52:15;;;;;;;;;;;;;;;;;;5117247;28;19985;-68
2023/02/10 01:54:41;;;;;;;;;;;;;;;;;;5116911;28;19945;-67
2023/02/10 01:57:07;;;;;;;;;;;;;;;;;;5117338;28;19968;-67
2023/02/10 01:59:34;;;;;;;;;;;;;;;;;;5117014;28;19950;-67
2023/02/10 02:02:06;;;;;;;;;;;;;;;;;;5098235;28;19972;-67
2023/02/10 02:04:32;;;;;;;;;;;;;;;;;;5116736;28;20001;-67
2023/02/10 02:06:58;;;;;;;;;;;;;;;;;;5116720;28;20346;-67
2023/02/10 02:09:24;;;;;;;;;;;;;;;;;;5116484;28;19980;-67
2023/02/10 02:11:50;;;;;;;;;;;;;;;;;;5116615;28;20119;-67
2023/02/10 02:14:16;;;;;;;;;;;;;;;;;;5116484;28;20339;-67
2023/02/10 02:16:41;;;;;;;;;;;;;;;;;;5116986;28;19969;-67
2023/02/10 02:19:07;;;;;;;;;;;;;;;;;;5116468;28;19995;-67
2023/02/10 02:21:33;;;;;;;;;;;;;;;;;;5116377;28;19957;-68
2023/02/10 02:24:01;;;;;;;;;;;;;;;;;;5116358;28;19943;-67
2023/02/10 02:26:27;;;;;;;;;;;;;;;;;;5116613;28;19946;-67
2023/02/10 02:28:53;;;;;;;;;;;;;;;;;;5098047;28;19960;-67
2023/02/10 02:31:19;;;;;;;;;;;;;;;;;;5116459;28;19943;-67
2023/02/10 02:33:44;;;;;;;;;;;;;;;;;;5116392;28;20308;-67
2023/02/10 02:36:11;;;;;;;;;;;;;;;;;;5116617;28;19975;-67
2023/02/10 02:38:37;;;;;;;;;;;;;;;;;;5116107;28;19950;-66
2023/02/10 02:41:02;;;;;;;;;;;;;;;;;;5116014;28;19951;-67
2023/02/10 02:43:28;;;;;;;;;;;;;;;;;;5116533;28;20350;-67
2023/02/10 02:45:54;;;;;;;;;;;;;;;;;;5115899;28;19954;-67
2023/02/10 02:48:20;;;;;;;;;;;;;;;;;;5116114;28;19978;-67
2023/02/10 02:50:46;;;;;;;;;;;;;;;;;;5115787;28;20029;-67
2023/02/10 02:53:12;;;;;;;;;;;;;;;;;;5115433;28;19983;-68
2023/02/10 02:55:38;;;;;;;;;;;;;;;;;;5115923;28;20018;-67
2023/02/10 02:58:04;;;;;;;;;;;;;;;;;;5115690;28;20001;-67
2023/02/10 03:00:30;;;;;;;;;;;;;;;;;;5115931;28;19947;-67
2023/02/10 03:02:55;;;;;;;;;;;;;;;;;;5115501;28;20300;-67
2023/02/10 03:05:23;;;;;;;;;;;;;;;;;;5115817;28;19958;-68
2023/02/10 03:07:49;;;;;;;;;;;;;;;;;;5115735;28;19958;-66
2023/02/10 03:10:15;;;;;;;;;;;;;;;;;;5115868;28;20031;-67
2023/02/10 03:12:41;;;;;;;;;;;;;;;;;;5115395;28;20395;-67
2023/02/10 03:15:07;;;;;;;;;;;;;;;;;;5115199;28;20002;-67
2023/02/10 03:17:32;;;;;;;;;;;;;;;;;;5115581;28;20307;-67
2023/02/10 03:19:58;;;;;;;;;;;;;;;;;;5115222;28;19951;-67
2023/02/10 03:22:24;;;;;;;;;;;;;;;;;;5115164;28;19972;-68
2023/02/10 03:24:50;;;;;;;;;;;;;;;;;;5115387;28;19966;-67
2023/02/10 03:27:16;;;;;;;;;;;;;;;;;;5115093;28;19975;-67
2023/02/10 03:29:43;;;;;;;;;;;;;;;;;;5115060;28;19975;-67
2023/02/10 03:32:09;;;;;;;;;;;;;;;;;;5096814;28;20411;-67
2023/02/10 03:34:35;;;;;;;;;;;;;;;;;;5115542;28;19960;-67
2023/02/10 03:37:01;;;;;;;;;;;;;;;;;;5115085;28;19979;-66
2023/02/10 03:39:26;;;;;;;;;;;;;;;;;;5115143;28;19959;-66
2023/02/10 03:41:53;;;;;;;;;;;;;;;;;;5115398;28;19951;-67
2023/02/10 03:44:19;;;;;;;;;;;;;;;;;;5115016;28;19960;-66
2023/02/10 03:46:45;;;;;;;;;;;;;;;;;;5115303;28;20310;-68
2023/02/10 03:49:11;;;;;;;;;;;;;;;;;;5115001;28;19972;-67
2023/02/10 03:51:37;;;;;;;;;;;;;;;;;;5114917;28;20376;-67
2023/02/10 03:54:03;;;;;;;;;;;;;;;;;;5114589;28;19944;-67
2023/02/10 03:56:28;;;;;;;;;;;;;;;;;;5114501;28;19967;-67
2023/02/10 03:58:54;;;;;;;;;;;;;;;;;;5114554;28;19958;-67
2023/02/10 04:01:20;;;;;;;;;;;;;;;;;;5114864;28;19955;-67
2023/02/10 04:03:46;;;;;;;;;;;;;;;;;;5114424;28;20389;-67
2023/02/10 04:06:12;;;;;;;;;;;;;;;;;;5114401;28;19985;-67
2023/02/10 04:08:38;;;;;;;;;;;;;;;;;;5114244;28;19955;-67
2023/02/10 04:11:04;;;;;;;;;;;;;;;;;;5114687;28;19974;-66
2023/02/10 04:13:30;;;;;;;;;;;;;;;;;;5114473;28;19967;-67
2023/02/10 04:15:56;;;;;;;;;;;;;;;;;;5114810;28;19976;-68
2023/02/10 04:18:21;;;;;;;;;;;;;;;;;;5114558;28;20003;-67
2023/02/10 04:20:47;;;;;;;;;;;;;;;;;;5114236;28;19953;-67
2023/02/10 04:23:13;;;;;;;;;;;;;;;;;;5114538;28;19987;-66
2023/02/10 04:25:39;;;;;;;;;;;;;;;;;;5114171;28;20421;-67
2023/02/10 04:28:05;;;;;;;;;;;;;;;;;;5114459;28;19950;-67
2023/02/10 04:30:31;;;;;;;;;;;;;;;;;;5114143;28;20410;-67
2023/02/10 04:32:57;;;;;;;;;;;;;;;;;;5114144;28;19952;-67
2023/02/10 04:35:23;;;;;;;;;;;;;;;;;;5114619;28;20448;-67
2023/02/10 04:37:48;;;;;;;;;;;;;;;;;;5114052;28;20330;-68
2023/02/10 04:40:14;;;;;;;;;;;;;;;;;;5114327;28;19990;-68
2023/02/10 04:42:40;;;;;;;;;;;;;;;;;;5114002;28;20066;-67
2023/02/10 04:45:06;;;;;;;;;;;;;;;;;;5113993;28;19951;-67
2023/02/10 04:47:32;;;;;;;;;;;;;;;;;;5114510;28;19954;-67
2023/02/10 04:49:58;;;;;;;;;;;;;;;;;;5113963;28;19979;-67
2023/02/10 04:52:24;;;;;;;;;;;;;;;;;;5114235;28;19947;-67
2023/02/10 04:54:50;;;;;;;;;;;;;;;;;;5113928;28;19951;-67
2023/02/10 04:57:16;;;;;;;;;;;;;;;;;;5114422;28;20299;-67
2023/02/10 04:59:42;;;;;;;;;;;;;;;;;;5113855;28;20391;-67
2023/02/10 05:02:08;;;;;;;;;;;;;;;;;;5095431;28;20087;-68
2023/02/10 05:04:34;;;;;;;;;;;;;;;;;;5113830;28;20419;-67
2023/02/10 05:07:01;;;;;;;;;;;;;;;;;;5114334;28;20296;-67
2023/02/10 05:09:27;;;;;;;;;;;;;;;;;;5114089;28;19994;-67
2023/02/10 05:11:53;;;;;;;;;;;;;;;;;;5113721;28;20327;-67
2023/02/10 05:14:19;;;;;;;;;;;;;;;;;;5113747;28;19960;-67
2023/02/10 05:16:45;;;;;;;;;;;;;;;;;;5116790;28;19972;-68
2023/02/10 05:19:11;;;;;;;;;;;;;;;;;;5117860;28;20048;-68
2023/02/10 05:21:37;;;;;;;;;;;;;;;;;;5117546;28;20322;-67
2023/02/10 05:24:03;;;;;;;;;;;;;;;;;;5118053;28;19945;-67
2023/02/10 05:26:28;;;;;;;;;;;;;;;;;;5117450;28;19951;-68
2023/02/10 05:28:55;;;;;;;;;;;;;;;;;;5117436;28;19958;-68
2023/02/10 05:31:21;;;;;;;;;;;;;;;;;;5098893;28;20349;-68
2023/02/10 05:33:47;;;;;;;;;;;;;;;;;;5117328;28;19951;-68
2023/02/10 05:36:13;;;;;;;;;;;;;;;;;;5117495;28;20010;-67
2023/02/10 05:39:22;;;;;;;;;;;;;;;;;;5117186;28;20104;-68
2023/02/10 05:41:25;;;;;;;;;;;;;;;;;;5117098;28;20046;-67
2023/02/10 05:43:51;;;;;;;;;;;;;;;;;;5117396;28;20364;-67
2023/02/10 05:46:16;;;;;;;;;;;;;;;;;;5117063;28;19958;-67
2023/02/10 05:48:42;;;;;;;;;;;;;;;;;;5117091;28;19956;-66
2023/02/10 05:51:08;;;;;;;;;;;;;;;;;;5117573;28;19959;-67
2023/02/10 05:53:34;;;;;;;;;;;;;;;;;;5116991;28;19955;-68
2023/02/10 05:56:00;;;;;;;;;;;;;;;;;;5117135;28;19986;-67
2023/02/10 05:58:27;;;;;;;;;;;;;;;;;;5117140;28;19943;-67
2023/02/10 06:00:53;;;;;;;;;;;;;;;;;;5117077;28;19954;-67
2023/02/10 06:03:19;;;;;;;;;;;;;;;;;;5117366;28;20408;-67
2023/02/10 06:05:45;;;;;;;;;;;;;;;;;;5116706;28;19957;-67
2023/02/10 06:08:11;;;;;;;;;;;;;;;;;;5117245;28;20472;-68
2023/02/10 06:10:37;;;;;;;;;;;;;;;;;;5116248;28;20458;-66
2023/02/10 06:13:03;;;;;;;;;;;;;;;;;;5116473;28;19966;-67
2023/02/10 06:15:29;;;;;;;;;;;;;;;;;;5116443;28;19970;-67
2023/02/10 06:17:54;;;;;;;;;;;;;;;;;;5116792;28;19958;-67
2023/02/10 06:20:20;;;;;;;;;;;;;;;;;;5116459;28;19983;-68
2023/02/10 06:22:46;;;;;;;;;;;;;;;;;;5116600;28;19955;-67
2023/02/10 06:25:12;;;;;;;;;;;;;;;;;;5116536;28;19953;-67
2023/02/10 06:27:38;;;;;;;;;;;;;;;;;;5115625;28;19995;-66
2023/02/10 06:30:04;;;;;;;;;;;;;;;;;;5116535;28;19952;-67
2023/02/10 06:32:30;;;;;;;;;;;;;;;;;;5116201;28;20327;-67
2023/02/10 06:34:56;;;;;;;;;;;;;;;;;;5116409;28;19957;-67
2023/02/10 06:37:22;;;;;;;;;;;;;;;;;;5116026;28;19970;-67
2023/02/10 06:39:47;;;;;;;;;;;;;;;;;;5116060;28;19965;-66
2023/02/10 06:42:13;;;;;;;;;;;;;;;;;;5116004;28;20434;-67
2023/02/10 06:44:39;;;;;;;;;;;;;;;;;;5115920;28;19951;-66
2023/02/10 06:47:05;;;;;;;;;;;;;;;;;;5116127;28;19955;-67
2023/02/10 06:49:31;;;;;;;;;;;;;;;;;;5116128;28;20101;-67
2023/02/10 06:51:57;;;;;;;;;;;;;;;;;;5116081;28;19951;-67
2023/02/10 06:54:23;;;;;;;;;;;;;;;;;;5115723;28;19949;-66
2023/02/10 06:56:49;;;;;;;;;;;;;;;;;;5115637;28;20015;-67
2023/02/10 06:59:15;;;;;;;;;;;;;;;;;;5115638;28;19951;-67
2023/02/10 07:01:42;;;;;;;;;;;;;;;;;;5115902;28;19958;-67
2023/02/10 07:04:08;;;;;;;;;;;;;;;;;;5115563;28;19958;-68
2023/02/10 07:06:33;;;;;;;;;;;;;;;;;;5115497;28;19948;-67
2023/02/10 07:09:00;;;;;;;;;;;;;;;;;;5115202;28;20072;-67
2023/02/10 07:11:26;;;;;;;;;;;;;;;;;;5115752;28;19950;-67
2023/02/10 07:13:52;;;;;;;;;;;;;;;;;;5115420;28;19962;-67
2023/02/10 07:16:18;;;;;;;;;;;;;;;;;;5116023;28;20427;-67
2023/02/10 07:18:44;;;;;;;;;;;;;;;;;;5115266;28;19986;-68
2023/02/10 07:21:10;;;;;;;;;;;;;;;;;;5115231;28;20314;-67
2023/02/10 07:23:36;;;;;;;;;;;;;;;;;;5115185;28;19956;-67
2023/02/10 07:26:02;;;;;;;;;;;;;;;;;;5115424;28;20024;-68
2023/02/10 07:28:28;;;;;;;;;;;;;;;;;;5115057;28;20036;-67
2023/02/10 07:30:54;;;;;;;;;;;;;;;;;;5115567;28;20405;-68
2023/02/10 07:33:19;;;;;;;;;;;;;;;;;;5114969;28;19950;-67
2023/02/10 07:35:45;;;;;;;;;;;;;;;;;;5114891;28;20449;-67
2023/02/10 07:38:11;;;;;;;;;;;;;;;;;;5115175;28;20304;-67
2023/02/10 07:40:37;;;;;;;;;;;;;;;;;;5114534;28;19946;-68
2023/02/10 07:43:03;;;;;;;;;;;;;;;;;;5114853;28;20005;-68
2023/02/10 07:45:30;;;;;;;;;;;;;;;;;;5114814;28;20403;-67
2023/02/10 07:47:56;;;;;;;;;;;;;;;;;;5115021;28;20382;-67
2023/02/10 07:50:22;;;;;;;;;;;;;;;;;;5115271;28;19952;-68
2023/02/10 07:52:48;;;;;;;;;;;;;;;;;;5114908;28;20051;-68
2023/02/10 07:55:14;;;;;;;;;;;;;;;;;;5114816;28;20059;-67
2023/02/10 07:57:41;;;;;;;;;;;;;;;;;;5115146;28;20020;-68
2023/02/10 08:00:07;;;;;;;;;;;;;;;;;;5114781;28;20034;-67
2023/02/10 08:02:32;;;;;;;;;;;;;;;;;;5114534;28;19977;-67
2023/02/10 08:04:59;;;;;;;;;;;;;;;;;;5114464;28;19946;-67
2023/02/10 08:07:24;;;;;;;;;;;;;;;;;;5114780;28;20029;-67
2023/02/10 08:09:50;;;;;;;;;;;;;;;;;;5114173;28;19985;-67
2023/02/10 08:12:16;;;;;;;;;;;;;;;;;;5115219;28;20044;-67
2023/02/10 08:14:42;;;;;;;;;;;;;;;;;;5114528;28;19966;-67
2023/02/10 08:17:08;;;;;;;;;;;;;;;;;;5114189;28;20427;-67
2023/02/10 08:19:36;;;;;;;;;;;;;;;;;;5114268;28;19946;-67
2023/02/10 08:22:02;;;;;;;;;;;;;;;;;;5114206;28;19989;-67
2023/02/10 08:24:27;;;;;;;;;;;;;;;;;;5114437;28;19951;-67
2023/02/10 08:26:53;;;;;;;;;;;;;;;;;;5114406;28;20042;-66
2023/02/10 08:29:19;;;;;;;;;;;;;;;;;;5114649;28;19951;-68
2023/02/10 08:31:45;;;;;;;;;;;;;;;;;;5114117;28;20306;-68
2023/02/10 08:34:11;;;;;;;;;;;;;;;;;;5114066;28;19962;-67
2023/02/10 08:36:37;;;;;;;;;;;;;;;;;;5114227;28;19966;-67
2023/02/10 08:39:03;;;;;;;;;;;;;;;;;;5114331;28;19952;-67
2023/02/10 08:41:30;;;;;;;;;;;;;;;;;;5114003;28;19996;-67
2023/02/10 08:43:56;;;;;;;;;;;;;;;;;;5113930;28;19954;-67
2023/02/10 08:46:22;;;;;;;;;;;;;;;;;;5114269;28;19957;-67
2023/02/10 08:48:48;;;;;;;;;;;;;;;;;;5113934;28;19998;-68
2023/02/10 08:51:13;;;;;;;;;;;;;;;;;;5116625;28;19949;-67
2023/02/10 08:53:39;;;;;;;;;;;;;;;;;;5118396;28;19972;-67
2023/02/10 08:56:05;;;;;;;;;;;;;;;;;;5118008;28;19970;-67
2023/02/10 08:58:31;;;;;;;;;;;;;;;;;;5118322;28;19956;-67
2023/02/10 09:00:57;;;;;;;;;;;;;;;;;;5118255;28;20330;-68
2023/02/10 09:03:23;;;;;;;;;;;;;;;;;;5118222;28;20413;-68
2023/02/10 09:05:49;;;;;;;;;;;;;;;;;;5118198;28;19951;-68
2023/02/10 09:08:15;;;;;;;;;;;;;;;;;;5118061;28;19950;-67
2023/02/10 09:10:41;;;;;;;;;;;;;;;;;;5117357;28;20474;-67
2023/02/10 09:13:09;;;;;;;;;;;;;;;;;;5117699;28;20009;-68
2023/02/10 09:15:35;;;;;;;;;;;;;;;;;;5117913;28;20495;-71
2023/02/10 09:18:01;;;;;;;;;;;;;;;;;;5117933;28;19960;-70
2023/02/10 09:20:27;;;;;;;;;;;;;;;;;;5118195;28;19945;-69
2023/02/10 09:22:53;;;;;;;;;;;;;;;;;;5117525;28;19995;-70
2023/02/10 09:25:19;;;;;;;;;;;;;;;;;;5117785;28;19956;-69
2023/02/10 09:27:45;;;;;;;;;;;;;;;;;;5117485;28;19958;-71
2023/02/10 09:30:11;;;;;;;;;;;;;;;;;;5117697;28;19954;-69
2023/02/10 09:32:37;;;;;;;;;;;;;;;;;;5117656;28;19956;-70
2023/02/10 09:35:02;;;;;;;;;;;;;;;;;;5117410;28;19957;-71
2023/02/10 09:37:28;;;;;;;;;;;;;;;;;;5117228;28;19974;-70
2023/02/10 09:39:54;;;;;;;;;;;;;;;;;;5117254;28;20049;-70
2023/02/10 09:42:20;;;;;;;;;;;;;;;;;;5117514;28;19977;-71
2023/02/10 09:44:46;;;;;;;;;;;;;;;;;;5117406;28;19962;-71
2023/02/10 09:47:12;;;;;;;;;;;;;;;;;;5117110;28;20000;-70
2023/02/10 09:49:39;;;;;;;;;;;;;;;;;;5117050;28;20408;-71
2023/02/10 09:52:05;;;;;;;;;;;;;;;;;;5117336;28;20404;-71
2023/02/10 09:54:33;;;;;;;;;;;;;;;;;;5117248;28;20053;-70
2023/02/10 09:56:58;;;;;;;;;;;;;;;;;;5117107;28;19968;-68
2023/02/10 09:59:25;;;;;;;;;;;;;;;;;;5117119;28;19949;-67
2023/02/10 10:01:51;;;;;;;;;;;;;;;;;;5115761;28;20046;-69
2023/02/10 10:04:17;;;;;;;;;;;;;;;;;;5116815;28;20016;-68
2023/02/10 10:06:43;;;;;;;;;;;;;;;;;;5117068;28;19946;-67
2023/02/10 10:09:09;;;;;;;;;;;;;;;;;;5116483;28;20120;-73
2023/02/10 10:11:35;;;;;;;;;;;;;;;;;;5116668;28;20039;-73
2023/02/10 10:14:01;;;;;;;;;;;;;;;;;;5116607;28;19977;-73
2023/02/10 10:16:27;;;;;;;;;;;;;;;;;;5117014;28;20407;-72
2023/02/10 10:18:54;;;;;;;;;;;;;;;;;;5116798;28;20319;-72
2023/02/10 10:21:20;;;;;;;;;;;;;;;;;;5116398;28;20050;-72
2023/02/10 10:23:46;;;;;;;;;;;;;;;;;;5116417;28;19976;-72
2023/02/10 10:26:13;;;;;;;;;;;;;;;;;;5116622;28;19944;-74
2023/02/10 10:28:39;;;;;;;;;;;;;;;;;;5116596;28;20316;-73
2023/02/10 10:31:05;;;;;;;;;;;;;;;;;;5116532;28;19952;-73
2023/02/10 10:33:30;;;;;;;;;;;;;;;;;;5116254;28;19947;-72
2023/02/10 10:36:01;;;;;;;;;;;;;;;;;;5116082;28;20480;-71
2023/02/10 10:38:26;;;;;;;;;;;;;;;;;;5116132;28;19948;-72
2023/02/10 10:40:52;;;;;;;;;;;;;;;;;;5116082;28;19959;-72
2023/02/10 10:43:18;;;;;;;;;;;;;;;;;;5116030;28;20055;-71
2023/02/10 10:45:44;;;;;;;;;;;;;;;;;;5115960;28;19950;-73
2023/02/10 10:48:10;;;;;;;;;;;;;;;;;;5116200;28;20002;-72
2023/02/10 10:50:36;;;;;;;;;;;;;;;;;;5115899;28;20335;-71
2023/02/10 10:53:02;;;;;;;;;;;;;;;;;;5116385;28;20038;-72
2023/02/10 10:55:28;;;;;;;;;;;;;;;;;;5115644;28;19985;-71
2023/02/10 10:57:54;;;;;;;;;;;;;;;;;;5115983;28;19950;-72
2023/02/10 11:00:20;;;;;;;;;;;;;;;;;;5115671;28;19956;-71
2023/02/10 11:02:46;;;;;;;;;;;;;;;;;;5115929;28;19946;-71
2023/02/10 11:05:13;;;;;;;;;;;;;;;;;;5115551;28;20091;-71
2023/02/10 11:07:39;;;;;;;;;;;;;;;;;;5116131;28;19953;-72
2023/02/10 11:10:05;;;;;;;;;;;;;;;;;;5115157;28;19980;-72
2023/02/10 11:12:30;;;;;;;;;;;;;;;;;;5115449;28;20475;-71
2023/02/10 11:14:57;;;;;;;;;;;;;;;;;;5115137;28;19967;-72
2023/02/10 11:17:23;;;;;;;;;;;;;;;;;;5115560;28;19976;-72
2023/02/10 11:19:50;;;;;;;;;;;;;;;;;;5114841;28;20273;-72
2023/02/10 11:22:16;;;;;;;;;;;;;;;;;;5115248;28;20401;-73
2023/02/10 11:24:42;;;;;;;;;;;;;;;;;;5115537;28;19958;-71
2023/02/10 11:27:08;;;;;;;;;;;;;;;;;;5115181;28;20388;-71
2023/02/10 11:29:34;;;;;;;;;;;;;;;;;;5115134;28;19953;-73
2023/02/10 11:32:00;;;;;;;;;;;;;;;;;;5115333;28;19951;-71
2023/02/10 11:34:26;;;;;;;;;;;;;;;;;;5115019;28;19958;-73
2023/02/10 11:36:52;;;;;;;;;;;;;;;;;;5115192;28;19964;-71
2023/02/10 11:39:18;;;;;;;;;;;;;;;;;;5114940;28;19946;-73
2023/02/10 11:41:44;;;;;;;;;;;;;;;;;;5096368;28;19951;-71
2023/02/10 11:44:10;;;;;;;;;;;;;;;;;;5115116;28;19961;-73
2023/02/10 11:46:36;;;;;;;;;;;;;;;;;;5114730;28;19979;-72
2023/02/10 11:49:02;;;;;;;;;;;;;;;;;;5115310;28;19951;-72
2023/02/10 11:51:28;;;;;;;;;;;;;;;;;;5114626;28;19989;-72
2023/02/10 11:53:54;;;;;;;;;;;;;;;;;;5114657;28;19952;-71
2023/02/10 11:56:20;;;;;;;;;;;;;;;;;;5114578;28;20377;-72
2023/02/10 11:59:04;;;;;;;;;;;;;;;;;;5114594;28;19944;-72
2023/02/10 12:01:30;;;;;;;;;;;;;;;;;;5114816;28;19963;-71
2023/02/10 12:03:57;;;;;;;;;;;;;;;;;;5096203;28;19951;-71
2023/02/10 12:06:23;;;;;;;;;;;;;;;;;;5114518;28;19993;-72
2023/02/10 12:08:49;;;;;;;;;;;;;;;;;;5114249;28;19989;-72
2023/02/10 12:11:15;;;;;;;;;;;;;;;;;;5115002;28;20049;-74
2023/02/10 12:13:40;;;;;;;;;;;;;;;;;;5114570;28;20072;-72
2023/02/10 12:16:06;;;;;;;;;;;;;;;;;;5114523;28;20429;-72
2023/02/10 12:18:32;;;;;;;;;;;;;;;;;;5114355;28;19951;-71
2023/02/10 12:20:58;;;;;;;;;;;;;;;;;;5114556;28;19996;-72
2023/02/10 12:23:24;;;;;;;;;;;;;;;;;;5114529;28;19958;-70
2023/02/10 12:25:50;;;;;;;;;;;;;;;;;;5113701;28;19984;-72
2023/02/10 12:28:16;;;;;;;;;;;;;;;;;;5114199;28;19958;-71
2023/02/10 12:30:42;;;;;;;;;;;;;;;;;;5114723;28;20396;-71
2023/02/10 12:33:08;;;;;;;;;;;;;;;;;;5114490;28;19950;-74
2023/02/10 12:35:34;;;;;;;;;;;;;;;;;;5114091;28;19951;-73
2023/02/10 12:38:00;;;;;;;;;;;;;;;;;;5095819;28;19955;-72
2023/02/10 12:40:26;;;;;;;;;;;;;;;;;;5114622;28;19953;-72
2023/02/10 12:42:52;;;;;;;;;;;;;;;;;;5114041;28;19951;-73
2023/02/10 12:45:18;;;;;;;;;;;;;;;;;;5114295;28;20005;-72
2023/02/10 12:47:44;;;;;;;;;;;;;;;;;;5114314;28;20034;-72
2023/02/10 12:50:10;;;;;;;;;;;;;;;;;;5113979;28;20037;-72
2023/02/10 12:52:36;;;;;;;;;;;;;;;;;;5114542;28;19945;-71
2023/02/10 12:55:02;;;;;;;;;;;;;;;;;;5113980;28;20005;-72
2023/02/10 12:57:27;;;;;;;;;;;;;;;;;;5114147;28;19967;-73
2023/02/10 12:59:53;;;;;;;;;;;;;;;;;;5113851;28;20058;-72
2023/02/10 13:02:19;;;;;;;;;;;;;;;;;;5113864;28;19955;-72
2023/02/10 13:04:45;;;;;;;;;;;;;;;;;;5113847;28;19990;-73
2023/02/10 13:07:11;;;;;;;;;;;;;;;;;;5114071;28;19950;-72
2023/02/10 13:09:37;;;;;;;;;;;;;;;;;;5113709;28;19984;-73
2023/02/10 13:12:03;;;;;;;;;;;;;;;;;;5095477;28;19963;-72
2023/02/10 13:14:29;;;;;;;;;;;;;;;;;;5113579;28;20450;-71
2023/02/10 13:16:54;;;;;;;;;;;;;;;;;;5113322;28;19997;-72
2023/02/10 13:19:20;;;;;;;;;;;;;;;;;;5113722;28;19993;-72
2023/02/10 13:21:46;;;;;;;;;;;;;;;;;;5113639;28;19959;-71
2023/02/10 13:24:12;;;;;;;;;;;;;;;;;;5113878;28;19954;-71
2023/02/10 13:26:38;;;;;;;;;;;;;;;;;;5113557;28;19982;-72
2023/02/10 13:29:04;;;;;;;;;;;;;;;;;;5113920;28;20368;-72
2023/02/10 13:31:30;;;;;;;;;;;;;;;;;;5113641;28;20396;-72
2023/02/10 13:33:56;;;;;;;;;;;;;;;;;;5114141;28;19958;-71
2023/02/10 13:36:25;;;;;;;;;;;;;;;;;;5114350;28;20438;-73
2023/02/10 13:38:51;;;;;;;;;;;;;;;;;;5117564;28;19992;-71
2023/02/10 13:44:02;;;;;;;;;;;;;;;;;;5116987;28;20347;-72
2023/02/10 13:46:29;;;;;;;;;;;;;;;;;;5117444;28;19952;-73
2023/02/10 13:48:54;;;;;;;;;;;;;;;;;;5117127;28;19946;-71
2023/02/10 13:51:20;;;;;;;;;;;;;;;;;;5117099;28;19953;-71
2023/02/10 13:53:48;;;;;;;;;;;;;;;;;;5117281;28;19945;-71
2023/02/10 13:56:15;;;;;;;;;;;;;;;;;;5116933;28;19966;-71
2023/02/10 13:58:40;;;;;;;;;;;;;;;;;;5116973;28;19947;-73
2023/02/10 14:01:06;;;;;;;;;;;;;;;;;;5117119;28;20047;-73
2023/02/10 14:03:32;;;;;;;;;;;;;;;;;;5116870;28;19949;-71
2023/02/10 14:05:58;;;;;;;;;;;;;;;;;;5117292;28;20412;-73
2023/02/10 14:08:24;;;;;;;;;;;;;;;;;;5116968;28;19952;-72
2023/02/10 14:10:50;;;;;;;;;;;;;;;;;;5117171;28;20310;-71
2023/02/10 14:13:16;;;;;;;;;;;;;;;;;;5116499;28;19967;-72
2023/02/10 14:15:42;;;;;;;;;;;;;;;;;;5098171;28;19972;-73
2023/02/10 14:18:09;;;;;;;;;;;;;;;;;;5116496;28;20039;-72
2023/02/10 14:20:34;;;;;;;;;;;;;;;;;;5116721;28;19952;-71
2023/02/10 14:23:00;;;;;;;;;;;;;;;;;;5116396;28;20108;-72
2023/02/10 14:25:26;;;;;;;;;;;;;;;;;;5116238;28;19954;-73
2023/02/10 14:27:54;;;;;;;;;;;;;;;;;;5116581;28;20031;-73
2023/02/10 14:30:20;;;;;;;;;;;;;;;;;;5116358;28;19948;-71
2023/02/10 14:32:46;;;;;;;;;;;;;;;;;;5116267;28;20467;-72
2023/02/10 14:35:11;;;;;;;;;;;;;;;;;;5097978;28;20063;-73
2023/02/10 14:37:37;;;;;;;;;;;;;;;;;;5116126;28;19970;-72
2023/02/10 14:40:03;;;;;;;;;;;;;;;;;;5116389;28;19948;-73
2023/02/10 14:42:29;;;;;;;;;;;;;;;;;;5116363;28;19951;-73
2023/02/10 14:44:55;;;;;;;;;;;;;;;;;;5116577;28;19950;-71
2023/02/10 14:47:23;;;;;;;;;;;;;;;;;;5115945;28;19952;-73
2023/02/10 14:49:49;;;;;;;;;;;;;;;;;;5115394;28;19951;-72
2023/02/10 14:52:14;;;;;;;;;;;;;;;;;;5115888;28;19957;-72
2023/02/10 14:54:40;;;;;;;;;;;;;;;;;;5097545;28;20310;-71
2023/02/10 14:57:06;;;;;;;;;;;;;;;;;;5116009;28;19978;-71
2023/02/10 14:59:33;;;;;;;;;;;;;;;;;;5115748;28;20409;-73
2023/02/10 15:01:59;;;;;;;;;;;;;;;;;;5097170;28;19960;-74
2023/02/10 15:04:25;;;;;;;;;;;;;;;;;;5115965;28;19950;-71
2023/02/10 15:06:51;;;;;;;;;;;;;;;;;;5115593;28;19963;-73
2023/02/10 15:09:17;;;;;;;;;;;;;;;;;;5115382;28;19985;-72
2023/02/10 15:14:28;;;;;;;;;;;;;;;;;;5115946;28;20024;-71
2023/02/10 15:16:54;;;;;;;;;;;;;;;;;;5115336;28;19970;-72
2023/02/10 15:19:19;;;;;;;;;;;;;;;;;;5115371;28;19947;-72
2023/02/10 15:21:46;;;;;;;;;;;;;;;;;;5096767;28;19955;-72
2023/02/10 15:24:11;;;;;;;;;;;;;;;;;;5096979;28;19982;-73
2023/02/10 15:26:40;;;;;;;;;;;;;;;;;;5115179;28;19947;-71
2023/02/10 15:29:06;;;;;;;;;;;;;;;;;;5115181;28;19946;-72
2023/02/10 15:31:32;;;;;;;;;;;;;;;;;;5115175;28;19957;-72
2023/02/10 15:33:58;;;;;;;;;;;;;;;;;;5115337;28;19958;-72
2023/02/10 15:36:24;;;;;;;;;;;;;;;;;;5114976;28;19964;-73
2023/02/10 15:38:50;;;;;;;;;;;;;;;;;;5115240;28;19958;-72
2023/02/10 15:41:15;;;;;;;;;;;;;;;;;;5115217;28;19956;-72
2023/02/10 15:43:45;;;;;;;;;;;;;;;;;;5115482;28;19948;-71
2023/02/10 15:46:11;;;;;;;;;;;;;;;;;;5114866;28;20395;-72
2023/02/10 15:48:37;;;;;;;;;;;;;;;;;;5114781;28;19952;-73
2023/02/10 15:51:02;;;;;;;;;;;;;;;;;;5114770;28;19946;-71
2023/02/10 15:53:28;;;;;;;;;;;;;;;;;;5115267;28;20458;-73
2023/02/10 15:55:54;;;;;;;;;;;;;;;;;;5114669;28;20013;-72
2023/02/10 15:58:20;;;;;;;;;;;;;;;;;;5115138;28;20001;-72
2023/02/10 16:00:46;;;;;;;;;;;;;;;;;;5113612;28;20397;-72
2023/02/10 16:03:14;;;;;;;;;;;;;;;;;;5114439;28;19974;-72
2023/02/10 16:05:39;;;;;;;;;;;;;;;;;;5114457;28;19943;-72
2023/02/10 16:08:06;;;;;;;;;;;;;;;;;;5114928;28;20413;-72
2023/02/10 16:10:32;;;;;;;;;;;;;;;;;;5114027;28;20010;-73
2023/02/10 16:12:58;;;;;;;;;;;;;;;;;;5114236;28;20423;-71
2023/02/10 16:15:24;;;;;;;;;;;;;;;;;;5114666;28;19955;-73
2023/02/10 16:17:49;;;;;;;;;;;;;;;;;;5114313;28;20394;-72
2023/02/10 16:20:17;;;;;;;;;;;;;;;;;;5114618;28;19945;-73
2023/02/10 16:22:43;;;;;;;;;;;;;;;;;;5114247;28;19952;-73
2023/02/10 16:25:09;;;;;;;;;;;;;;;;;;5114838;28;20389;-70
2023/02/10 16:27:35;;;;;;;;;;;;;;;;;;5114522;28;19990;-72
2023/02/10 16:30:01;;;;;;;;;;;;;;;;;;5114211;28;19954;-71
2023/02/10 16:32:27;;;;;;;;;;;;;;;;;;5114144;28;20422;-72
2023/02/10 16:34:53;;;;;;;;;;;;;;;;;;5114148;28;19953;-71
2023/02/10 16:37:19;;;;;;;;;;;;;;;;;;5114318;28;19971;-71
2023/02/10 16:39:45;;;;;;;;;;;;;;;;;;5114114;28;19949;-72
2023/02/10 16:42:11;;;;;;;;;;;;;;;;;;5113999;28;19955;-72